createdAt,value
2022-09-12T00:01:21.210Z,2.83
2022-09-12T00:03:52.711Z,3.27
2022-09-12T00:06:34.109Z,2.60
2022-09-12T00:09:04.314Z,2.93
2022-09-12T00:11:31.407Z,2.90
2022-09-12T00:14:00.470Z,3.00
2022-09-12T00:16:29.560Z,3.10
2022-09-12T00:18:56.286Z,2.87
2022-09-12T00:21:23.578Z,2.83
2022-09-12T00:23:53.906Z,2.67
2022-09-12T00:26:23.659Z,3.27
2022-09-12T00:28:50.604Z,3.13
2022-09-12T00:31:24.213Z,3.10
2022-09-12T00:33:51.452Z,3.00
2022-09-12T00:36:21.428Z,3.07
2022-09-12T00:38:48.450Z,3.27
2022-09-12T00:41:28.783Z,3.13
2022-09-12T00:44:01.335Z,3.50
2022-09-12T00:46:40.538Z,2.63
2022-09-12T00:49:21.834Z,3.50
2022-09-12T00:52:06.462Z,2.80
2022-09-12T00:54:53.544Z,2.93
2022-09-12T00:57:25.344Z,2.60
2022-09-12T01:00:04.605Z,2.90
2022-09-12T01:02:31.334Z,2.70
2022-09-12T01:04:58.487Z,3.17
2022-09-12T01:07:25.171Z,3.60
2022-09-12T01:09:52.227Z,3.20
2022-09-12T01:12:29.546Z,3.30
2022-09-12T01:14:56.153Z,2.80
2022-09-12T01:17:29.655Z,3.03
2022-09-12T01:20:08.017Z,3.07
2022-09-12T01:23:15.471Z,3.10
2022-09-12T01:26:15.596Z,3.00
2022-09-12T01:28:56.419Z,3.40
2022-09-12T01:31:44.371Z,3.03
2022-09-12T01:34:28.309Z,2.93
2022-09-12T01:37:12.986Z,2.80
2022-09-12T01:40:02.236Z,3.10
2022-09-12T01:42:40.994Z,2.90
2022-09-12T01:45:20.547Z,3.13
2022-09-12T01:47:54.295Z,2.60
2022-09-12T01:50:38.103Z,2.93
2022-09-12T01:53:14.675Z,3.13
2022-09-12T01:55:51.414Z,2.73
2022-09-12T01:58:27.143Z,2.67
2022-09-12T02:01:09.327Z,2.90
2022-09-12T02:03:45.152Z,2.70
2022-09-12T02:06:21.024Z,3.30
2022-09-12T02:08:55.153Z,3.20
2022-09-12T02:11:22.253Z,2.73
2022-09-12T02:14:01.917Z,2.67
2022-09-12T02:16:34.628Z,3.07
2022-09-12T02:19:10.415Z,2.80
2022-09-12T02:21:42.296Z,2.63
2022-09-12T02:24:12.603Z,2.77
2022-09-12T02:26:51.038Z,2.67
2022-09-12T02:29:17.833Z,3.43
2022-09-12T02:31:50.009Z,3.20
2022-09-12T02:34:33.242Z,2.97
2022-09-12T02:37:05.997Z,3.07
2022-09-12T02:39:32.970Z,3.30
2022-09-12T02:42:01.943Z,3.20
2022-09-12T02:44:30.795Z,3.10
2022-09-12T02:47:04.899Z,2.90
2022-09-12T02:49:31.670Z,3.43
2022-09-12T02:52:00.066Z,2.90
2022-09-12T02:54:28.023Z,3.67
2022-09-12T02:56:54.703Z,3.63
2022-09-12T02:59:24.103Z,3.77
2022-09-12T03:02:15.550Z,3.60
2022-09-12T03:05:03.505Z,3.73
2022-09-12T03:07:39.966Z,3.93
2022-09-12T03:10:28.920Z,4.13
2022-09-12T03:13:20.573Z,3.80
2022-09-12T03:15:47.200Z,4.40
2022-09-12T03:18:14.650Z,4.57
2022-09-12T03:21:09.890Z,4.50
2022-09-12T03:23:36.819Z,4.27
2022-09-12T03:26:11.059Z,5.10
2022-09-12T03:28:39.616Z,4.97
2022-09-12T03:31:14.863Z,4.27
2022-09-12T03:33:41.907Z,4.60
2022-09-12T03:36:26.955Z,4.73
2022-09-12T03:38:53.691Z,5.03
2022-09-12T03:41:21.314Z,5.27
2022-09-12T03:43:48.513Z,5.57
2022-09-12T03:46:15.159Z,5.00
2022-09-12T03:48:41.993Z,4.97
2022-09-12T03:51:10.567Z,5.23
2022-09-12T03:53:37.329Z,5.57
2022-09-12T03:56:13.527Z,5.47
2022-09-12T03:58:40.715Z,5.57
2022-09-12T04:01:12.911Z,5.53
2022-09-12T04:03:48.358Z,6.27
2022-09-12T04:06:18.255Z,6.10
2022-09-12T04:08:51.581Z,5.60
2022-09-12T04:11:19.912Z,5.50
2022-09-12T04:13:47.626Z,5.87
2022-09-12T04:16:15.772Z,5.50
2022-09-12T04:18:42.698Z,5.13
2022-09-12T04:21:12.340Z,6.13
2022-09-12T04:23:39.222Z,5.87
2022-09-12T04:26:13.788Z,5.60
2022-09-12T04:28:41.395Z,6.17
2022-09-12T04:31:12.314Z,5.67
2022-09-12T04:33:39.519Z,5.77
2022-09-12T04:36:09.083Z,4.60
2022-09-12T04:38:36.866Z,5.50
2022-09-12T04:41:22.911Z,6.17
2022-09-12T04:43:54.700Z,5.40
2022-09-12T04:46:21.652Z,5.67
2022-09-12T04:48:52.281Z,5.83
2022-09-12T04:51:31.036Z,5.27
2022-09-12T04:54:06.555Z,6.20
2022-09-12T04:56:36.529Z,5.97
2022-09-12T04:59:03.375Z,6.13
2022-09-12T05:01:30.457Z,5.93
2022-09-12T05:03:58.928Z,5.00
2022-09-12T05:06:34.959Z,4.83
2022-09-12T05:09:06.606Z,5.60
2022-09-12T05:12:02.541Z,5.27
2022-09-12T05:14:25.524Z,5.13
2022-09-12T05:16:52.162Z,5.57
2022-09-12T05:19:18.814Z,5.93
2022-09-12T05:21:45.434Z,5.73
2022-09-12T05:24:12.202Z,6.00
2022-09-12T05:26:41.901Z,6.00
2022-09-12T05:29:08.503Z,5.50
2022-09-12T05:31:35.597Z,5.30
2022-09-12T05:34:06.098Z,5.50
2022-09-12T05:36:33.333Z,5.73
2022-09-12T05:39:00.567Z,4.80
2022-09-12T05:41:30.903Z,5.00
2022-09-12T05:43:59.986Z,5.43
2022-09-12T05:46:28.813Z,5.33
2022-09-12T05:48:56.779Z,5.30
2022-09-12T05:51:28.568Z,4.93
2022-09-12T05:54:00.097Z,5.23
2022-09-12T05:56:32.310Z,5.70
2022-09-12T05:59:04.792Z,5.23
2022-09-12T06:01:33.759Z,5.30
2022-09-12T06:04:03.556Z,5.37
2022-09-12T06:06:31.878Z,5.47
2022-09-12T06:09:04.208Z,5.63
2022-09-12T06:11:33.398Z,5.30
2022-09-12T06:14:03.612Z,4.90
2022-09-12T06:16:32.455Z,4.63
2022-09-12T06:19:04.786Z,5.10
2022-09-12T06:21:32.010Z,5.03
2022-09-12T06:23:59.010Z,4.80
2022-09-12T06:26:26.374Z,5.00
2022-09-12T06:28:54.893Z,4.43
2022-09-12T06:31:25.848Z,4.80
2022-09-12T06:33:56.833Z,4.83
2022-09-12T06:36:28.680Z,5.07
2022-09-12T06:38:59.454Z,4.53
2022-09-12T06:41:26.930Z,4.10
2022-09-12T06:43:57.115Z,3.87
2022-09-12T06:46:25.205Z,3.57
2022-09-12T06:48:52.178Z,3.40
2022-09-12T06:51:22.326Z,3.20
2022-09-12T06:53:50.359Z,3.50
2022-09-12T06:56:21.976Z,2.90
2022-09-12T06:58:50.558Z,2.73
2022-09-12T07:01:22.309Z,3.40
2022-09-12T07:03:55.918Z,3.30
2022-09-12T07:06:27.454Z,3.33
2022-09-12T07:08:54.022Z,3.40
2022-09-12T07:11:27.311Z,3.60
2022-09-12T07:13:56.378Z,3.27
2022-09-12T07:16:23.909Z,3.73
2022-09-12T07:18:55.475Z,3.00
2022-09-12T07:21:22.803Z,3.07
2022-09-12T07:23:53.271Z,2.90
2022-09-12T07:26:19.894Z,3.20
2022-09-12T07:28:51.578Z,3.13
2022-09-12T07:31:19.553Z,2.90
2022-09-12T07:33:48.221Z,2.50
2022-09-12T07:36:22.565Z,2.30
2022-09-12T07:38:57.241Z,2.40
2022-09-12T07:41:27.049Z,2.53
2022-09-12T07:43:58.280Z,2.60
2022-09-12T07:46:26.617Z,2.73
2022-09-12T07:48:54.970Z,2.30
2022-09-12T07:51:22.573Z,2.10
2022-09-12T07:53:49.353Z,2.40
2022-09-12T07:56:17.358Z,2.20
2022-09-12T07:58:46.557Z,2.27
2022-09-12T08:01:23.189Z,1.90
2022-09-12T08:03:55.841Z,1.83
2022-09-12T08:06:26.385Z,1.87
2022-09-12T08:08:55.103Z,1.80
2022-09-12T08:11:23.486Z,1.70
2022-09-12T08:13:55.367Z,1.70
2022-09-12T08:16:24.917Z,1.47
2022-09-12T08:18:51.776Z,1.92
2022-09-12T08:21:24.096Z,1.85
2022-09-12T08:23:56.495Z,1.67
2022-09-12T08:26:23.602Z,1.67
2022-09-12T08:28:50.802Z,1.80
2022-09-12T08:31:20.417Z,1.63
2022-09-12T08:33:47.249Z,1.50
2022-09-12T08:36:20.417Z,1.70
2022-09-12T08:38:49.127Z,1.48
2022-09-12T08:41:18.439Z,1.58
2022-09-12T08:44:09.793Z,1.58
2022-09-12T08:46:44.017Z,1.27
2022-09-12T08:49:15.037Z,1.40
2022-09-12T08:51:43.214Z,1.38
2022-09-12T08:54:29.259Z,1.73
2022-09-12T08:57:01.768Z,1.40
2022-09-12T08:59:39.774Z,1.67
2022-09-12T09:02:24.820Z,1.80
2022-09-12T09:05:22.637Z,1.40
2022-09-12T09:08:01.183Z,1.60
2022-09-12T09:10:48.967Z,1.60
2022-09-12T09:13:52.572Z,1.67
2022-09-12T09:16:32.405Z,1.65
2022-09-12T09:19:04.216Z,1.70
2022-09-12T09:21:46.862Z,2.00
2022-09-12T09:24:18.494Z,2.28
2022-09-12T09:26:56.565Z,1.70
2022-09-12T09:29:35.010Z,1.52
2022-09-12T09:32:09.649Z,2.03
2022-09-12T09:34:36.267Z,1.80
2022-09-12T09:37:20.918Z,1.70
2022-09-12T09:40:27.533Z,1.55
2022-09-12T09:43:09.199Z,1.60
2022-09-12T09:45:38.119Z,1.57
2022-09-12T09:48:10.621Z,1.50
2022-09-12T09:50:38.201Z,1.47
2022-09-12T09:53:09.323Z,1.83
2022-09-12T09:55:43.596Z,1.43
2022-09-12T09:58:10.221Z,1.60
2022-09-12T10:00:38.629Z,1.70
2022-09-12T10:03:13.987Z,1.57
2022-09-12T10:06:22.520Z,1.50
2022-09-12T10:08:50.382Z,1.60
2022-09-12T10:11:20.998Z,1.50
2022-09-12T10:13:51.475Z,1.50
2022-09-12T10:16:25.747Z,1.50
2022-09-12T10:18:53.915Z,1.60
2022-09-12T10:21:36.307Z,1.53
2022-09-12T10:24:20.458Z,1.27
2022-09-12T10:26:57.225Z,1.50
2022-09-12T10:29:33.774Z,1.77
2022-09-12T10:32:05.002Z,1.57
2022-09-12T10:34:37.852Z,1.40
2022-09-12T10:37:27.641Z,1.43
2022-09-12T10:39:57.878Z,1.40
2022-09-12T10:42:43.011Z,1.10
2022-09-12T10:45:29.859Z,1.23
2022-09-12T10:48:02.093Z,1.40
2022-09-12T10:50:42.296Z,1.40
2022-09-12T10:53:25.502Z,1.20
2022-09-12T10:56:07.922Z,1.20
2022-09-12T10:58:40.543Z,1.30
2022-09-12T11:01:36.430Z,1.30
2022-09-12T11:04:33.671Z,1.27
2022-09-12T11:07:37.055Z,1.40
2022-09-12T11:10:47.850Z,1.17
2022-09-12T11:13:14.470Z,1.23
2022-09-12T11:16:10.683Z,1.20
2022-09-12T11:18:56.141Z,1.00
2022-09-12T11:21:53.889Z,1.03
2022-09-12T11:24:35.548Z,1.27
2022-09-12T11:27:08.166Z,1.47
2022-09-12T11:29:54.987Z,1.20
2022-09-12T11:32:47.586Z,1.50
2022-09-12T11:35:29.770Z,1.40
2022-09-12T11:38:26.604Z,1.30
2022-09-12T11:41:01.340Z,1.60
2022-09-12T11:43:49.522Z,1.30
2022-09-12T11:46:34.639Z,1.50
2022-09-12T11:49:04.162Z,1.60
2022-09-12T11:51:41.211Z,1.60
2022-09-12T11:54:28.692Z,1.40
2022-09-12T11:57:39.889Z,1.40
2022-09-12T12:00:24.654Z,1.43
2022-09-12T12:03:06.640Z,1.40
2022-09-12T12:05:54.438Z,1.23
2022-09-12T12:08:23.419Z,1.53
2022-09-12T12:10:56.530Z,1.47
2022-09-12T12:13:33.914Z,1.60
2022-09-12T12:16:05.750Z,1.50
2022-09-12T12:18:35.773Z,1.30
2022-09-12T12:21:37.954Z,1.37
2022-09-12T12:24:07.645Z,1.53
2022-09-12T12:26:43.498Z,1.33
2022-09-12T12:29:22.212Z,1.33
2022-09-12T12:32:04.015Z,1.47
2022-09-12T12:34:41.810Z,1.40
2022-09-12T12:37:20.560Z,1.50
2022-09-12T12:40:01.414Z,1.17
2022-09-12T12:42:34.376Z,1.33
2022-09-12T12:45:24.269Z,1.30
2022-09-12T12:47:55.065Z,1.50
2022-09-12T12:50:32.100Z,1.40
2022-09-12T12:53:05.052Z,1.60
2022-09-12T12:55:45.561Z,1.70
2022-09-12T12:58:26.734Z,1.40
2022-09-12T13:01:07.903Z,1.30
2022-09-12T13:03:34.885Z,1.50
2022-09-12T13:06:05.500Z,1.70
2022-09-12T13:08:35.486Z,1.50
2022-09-12T13:11:02.188Z,1.40
2022-09-12T13:14:01.607Z,1.50
2022-09-12T13:16:37.756Z,1.40
2022-09-12T13:19:18.005Z,1.57
2022-09-12T13:22:07.724Z,1.37
2022-09-12T13:24:43.807Z,1.50
2022-09-12T13:27:22.954Z,1.40
2022-09-12T13:29:50.373Z,1.20
2022-09-12T13:32:18.425Z,1.20
2022-09-12T13:35:14.065Z,1.10
2022-09-12T13:37:51.415Z,1.40
2022-09-12T13:40:33.890Z,1.37
2022-09-12T13:43:17.754Z,1.60
2022-09-12T13:45:46.761Z,1.40
2022-09-12T13:48:18.236Z,1.53
2022-09-12T13:50:54.927Z,1.47
2022-09-12T13:53:25.946Z,1.27
2022-09-12T13:56:03.869Z,1.40
2022-09-12T13:58:33.315Z,1.43
2022-09-12T14:01:20.610Z,1.40
2022-09-12T14:04:12.930Z,1.47
2022-09-12T14:06:51.759Z,1.40
2022-09-12T14:09:38.588Z,1.30
2022-09-12T14:12:25.262Z,1.30
2022-09-12T14:14:53.068Z,1.30
2022-09-12T14:17:30.458Z,1.10
2022-09-12T14:20:03.965Z,1.47
2022-09-12T14:22:32.567Z,1.70
2022-09-12T14:25:00.182Z,1.37
2022-09-12T14:27:43.165Z,1.67
2022-09-12T14:30:42.066Z,1.70
2022-09-12T14:33:12.854Z,1.40
2022-09-12T14:35:43.525Z,1.50
2022-09-12T14:38:18.373Z,1.33
2022-09-12T14:40:48.752Z,1.37
2022-09-12T14:43:26.738Z,1.23
2022-09-12T14:46:10.446Z,1.60
2022-09-12T14:48:50.582Z,1.43
2022-09-12T14:51:25.106Z,1.30
2022-09-12T14:53:51.793Z,1.37
2022-09-12T14:56:24.320Z,1.40
2022-09-12T14:59:28.439Z,1.30
2022-09-12T15:02:16.515Z,1.23
2022-09-12T15:05:00.463Z,1.20
2022-09-12T15:08:04.814Z,1.40
2022-09-12T15:10:37.073Z,1.90
2022-09-12T15:13:09.683Z,1.60
2022-09-12T15:15:41.420Z,1.50
2022-09-12T15:18:13.734Z,1.30
2022-09-12T15:20:45.460Z,1.40
2022-09-12T15:23:20.779Z,1.63
2022-09-12T15:25:47.606Z,1.30
2022-09-12T15:28:20.035Z,1.70
2022-09-12T15:30:50.130Z,1.50
2022-09-12T15:33:22.856Z,1.50
2022-09-12T15:35:50.353Z,1.40
2022-09-12T15:38:17.186Z,1.60
2022-09-12T15:40:43.821Z,1.63
2022-09-12T15:43:13.853Z,1.47
2022-09-12T15:45:49.899Z,1.60
2022-09-12T15:48:16.477Z,1.50
2022-09-12T15:50:43.187Z,1.63
2022-09-12T15:53:18.576Z,1.60
2022-09-12T15:55:45.777Z,1.77
2022-09-12T15:58:13.097Z,1.70
2022-09-12T16:00:39.714Z,1.30
2022-09-12T16:03:07.043Z,1.67
2022-09-12T16:05:34.407Z,1.53
2022-09-12T16:08:01.226Z,1.70
2022-09-12T16:10:30.418Z,1.53
2022-09-12T16:12:57.893Z,1.50
2022-09-12T16:15:25.873Z,1.77
2022-09-12T16:17:52.870Z,1.57
2022-09-12T16:20:20.870Z,1.43
2022-09-12T16:22:47.829Z,1.50
2022-09-12T16:25:14.588Z,1.40
2022-09-12T16:27:41.807Z,1.47
2022-09-12T16:30:09.648Z,1.60
2022-09-12T16:32:36.522Z,1.70
2022-09-12T16:35:03.396Z,1.67
2022-09-12T16:37:31.582Z,1.47
2022-09-12T16:39:58.367Z,1.50
2022-09-12T16:42:25.003Z,1.70
2022-09-12T16:44:52.003Z,1.80
2022-09-12T16:47:18.638Z,1.63
2022-09-12T16:49:45.255Z,1.43
2022-09-12T16:52:14.251Z,1.73
2022-09-12T16:54:40.899Z,1.47
2022-09-12T16:57:07.485Z,3.50
2022-09-12T16:59:34.118Z,2.30
2022-09-12T17:02:00.777Z,2.50
2022-09-12T17:04:27.554Z,1.90
2022-09-12T17:06:54.507Z,1.70
2022-09-12T17:09:22.077Z,2.23
2022-09-12T17:11:50.247Z,1.93
2022-09-12T17:14:16.946Z,1.70
2022-09-12T17:16:50.887Z,1.70
2022-09-12T17:19:33.059Z,1.50
2022-09-12T17:21:59.935Z,1.50
2022-09-12T17:24:26.796Z,1.60
2022-09-12T17:26:53.772Z,1.70
2022-09-12T17:29:20.781Z,1.77
2022-09-12T17:31:47.658Z,1.93
2022-09-12T17:34:15.244Z,1.50
2022-09-12T17:36:44.598Z,2.20
2022-09-12T17:39:12.932Z,1.83
2022-09-12T17:41:41.857Z,2.07
2022-09-12T17:44:11.730Z,1.57
2022-09-12T17:46:38.789Z,1.90
2022-09-12T17:49:20.967Z,1.80
2022-09-12T17:51:48.659Z,1.50
2022-09-12T17:54:18.852Z,1.67
2022-09-12T17:56:49.909Z,1.60
2022-09-12T17:59:21.727Z,1.40
2022-09-12T18:02:07.052Z,1.63
2022-09-12T18:04:37.506Z,1.83
2022-09-12T18:07:04.366Z,2.00
2022-09-12T18:09:31.035Z,2.23
2022-09-12T18:11:58.524Z,1.80
2022-09-12T18:14:27.699Z,1.80
2022-09-12T18:16:57.116Z,1.60
2022-09-12T18:19:24.313Z,1.73
2022-09-12T18:21:51.049Z,2.00
2022-09-12T18:24:18.469Z,1.50
2022-09-12T18:26:45.390Z,1.70
2022-09-12T18:29:13.247Z,1.67
2022-09-12T18:31:39.897Z,1.80
2022-09-12T18:34:07.886Z,2.37
2022-09-12T18:36:34.506Z,1.73
2022-09-12T18:39:01.144Z,1.77
2022-09-12T18:41:29.038Z,1.73
2022-09-12T18:44:00.847Z,2.00
2022-09-12T18:46:29.695Z,1.80
2022-09-12T18:49:00.279Z,2.10
2022-09-12T18:51:33.682Z,2.10
2022-09-12T18:54:03.462Z,1.87
2022-09-12T18:56:35.083Z,1.93
2022-09-12T18:59:04.260Z,2.10
2022-09-12T19:01:37.761Z,1.97
2022-09-12T19:04:06.258Z,2.37
2022-09-12T19:06:36.511Z,1.87
2022-09-12T19:09:07.787Z,2.10
2022-09-12T19:11:39.558Z,2.03
2022-09-12T19:14:07.658Z,3.97
2022-09-12T19:16:34.834Z,2.53
2022-09-12T19:19:02.687Z,2.47
2022-09-12T19:21:31.140Z,2.10
2022-09-12T19:24:01.074Z,2.10
2022-09-12T19:26:27.929Z,2.13
2022-09-12T19:28:56.117Z,2.30
2022-09-12T19:31:24.408Z,2.10
2022-09-12T19:33:54.659Z,2.07
2022-09-12T19:36:43.692Z,2.13
2022-09-12T19:39:09.559Z,2.10
2022-09-12T19:41:36.520Z,2.40
2022-09-12T19:44:04.507Z,1.90
2022-09-12T19:46:31.361Z,1.90
2022-09-12T19:48:58.058Z,2.00
2022-09-12T19:51:24.711Z,1.97
2022-09-12T19:53:52.150Z,1.90
2022-09-12T19:56:19.266Z,1.83
2022-09-12T19:58:50.901Z,2.17
2022-09-12T20:01:25.023Z,2.00
2022-09-12T20:03:54.951Z,1.97
2022-09-12T20:06:21.782Z,2.10
2022-09-12T20:08:48.555Z,2.27
2022-09-12T20:11:17.943Z,2.10
2022-09-12T20:13:45.744Z,1.90
2022-09-12T20:16:33.548Z,2.30
2022-09-12T20:19:07.090Z,2.10
2022-09-12T20:21:36.114Z,2.17
2022-09-12T20:24:03.056Z,1.97
2022-09-12T20:26:30.189Z,2.10
2022-09-12T20:28:56.927Z,2.10
2022-09-12T20:31:24.519Z,1.90
2022-09-12T20:33:52.141Z,2.00
2022-09-12T20:36:20.872Z,2.10
2022-09-12T20:38:50.394Z,2.27
2022-09-12T20:41:17.849Z,2.10
2022-09-12T20:43:44.495Z,2.00
2022-09-12T20:46:11.528Z,2.10
2022-09-12T20:48:39.052Z,1.90
2022-09-12T20:51:06.581Z,1.83
2022-09-12T20:53:35.258Z,2.20
2022-09-12T20:56:03.182Z,2.00
2022-09-12T20:58:29.862Z,2.17
2022-09-12T21:00:56.940Z,2.00
2022-09-12T21:03:23.603Z,2.07
2022-09-12T21:05:50.187Z,1.90
2022-09-12T21:08:17.204Z,2.13
2022-09-12T21:10:44.570Z,1.90
2022-09-12T21:13:12.202Z,2.07
2022-09-12T21:15:40.207Z,2.27
2022-09-12T21:18:07.544Z,1.87
2022-09-12T21:20:34.504Z,2.03
2022-09-12T21:23:01.190Z,1.90
2022-09-12T21:25:29.130Z,1.83
2022-09-12T21:27:55.758Z,2.00
2022-09-12T21:30:22.465Z,2.30
2022-09-12T21:32:49.178Z,2.30
2022-09-12T21:35:16.040Z,2.07
2022-09-12T21:37:42.670Z,2.27
2022-09-12T21:40:09.622Z,2.30
2022-09-12T21:42:36.270Z,2.40
2022-09-12T21:45:02.989Z,2.07
2022-09-12T21:47:29.571Z,2.07
2022-09-12T21:49:56.197Z,2.10
2022-09-12T21:52:22.899Z,1.90
2022-09-12T21:54:49.482Z,1.87
2022-09-12T21:57:16.091Z,2.07
2022-09-12T21:59:42.822Z,2.10
2022-09-12T22:02:10.934Z,1.90
2022-09-12T22:04:37.630Z,2.30
2022-09-12T22:07:05.498Z,2.23
2022-09-12T22:09:32.901Z,1.90
2022-09-12T22:11:59.498Z,1.70
2022-09-12T22:14:26.248Z,2.00
2022-09-12T22:16:54.983Z,1.80
2022-09-12T22:19:24.513Z,1.70
2022-09-12T22:22:25.068Z,1.90
2022-09-12T22:25:01.141Z,1.80
2022-09-12T22:27:27.966Z,2.00
2022-09-12T22:29:57.026Z,2.07
2022-09-12T22:32:26.365Z,1.87
2022-09-12T22:34:53.081Z,2.03
2022-09-12T22:37:20.869Z,1.90
2022-09-12T22:39:50.555Z,1.90
2022-09-12T22:42:21.398Z,1.80
2022-09-12T22:44:48.007Z,1.80
2022-09-12T22:47:15.859Z,1.90
2022-09-12T22:49:42.495Z,1.73
2022-09-12T22:52:09.093Z,1.70
2022-09-12T22:54:38.580Z,1.80
2022-09-12T22:57:05.333Z,1.70
2022-09-12T22:59:31.930Z,1.77
2022-09-12T23:01:58.605Z,1.90
2022-09-12T23:04:27.990Z,1.67
2022-09-12T23:06:58.260Z,1.70
2022-09-12T23:09:24.970Z,1.73
2022-09-12T23:11:55.578Z,1.97
2022-09-12T23:14:22.166Z,2.13
2022-09-12T23:16:51.755Z,1.70
2022-09-12T23:19:18.430Z,1.87
2022-09-12T23:21:49.305Z,1.77
2022-09-12T23:24:18.381Z,1.77
2022-09-12T23:26:45.062Z,1.80
2022-09-12T23:29:14.725Z,1.60
2022-09-12T23:31:41.723Z,1.60
2022-09-12T23:34:11.144Z,2.17
2022-09-12T23:36:37.757Z,1.60
2022-09-12T23:39:07.204Z,1.93
2022-09-12T23:41:33.851Z,1.83
2022-09-12T23:44:05.325Z,1.90
2022-09-12T23:46:34.267Z,2.07
2022-09-12T23:49:00.868Z,2.27
2022-09-12T23:51:30.294Z,1.80
2022-09-12T23:53:57.387Z,1.80
2022-09-12T23:56:27.044Z,2.00
2022-09-12T23:58:53.719Z,1.90
